Time;durP1;ratioP1;P1;durP2;ratioP2;P2;SDS_P1;SDS_P2;PMS_P1;PMS_P2;Temp;Humidity;BMP_temperature;BMP_pressure;BME280_temperature;BME280_humidity;BME280_pressure;Samples;Min_cycle;Max_cycle;Signal;HPM_P1;HPM_P2
2022/05/23 00:00:53;;;;;;;6.72;4.35;;;13.40;99.90;;;;;;2096946;28;20033;-72
2022/05/23 00:01:55;;;;;;;4.70;3.90;;;13.30;99.90;;;;;;2097154;28;20020;-73
2022/05/23 00:02:56;;;;;;;5.55;4.47;;;13.30;99.90;;;;;;2088125;28;20051;-72
2022/05/23 00:03:57;;;;;;;6.28;4.43;;;13.30;99.90;;;;;;2088150;28;20090;-73
2022/05/23 00:04:57;;;;;;;5.93;4.10;;;13.30;99.90;;;;;;2097273;28;20036;-72
2022/05/23 00:05:58;;;;;;;5.68;4.18;;;13.30;99.90;;;;;;2097282;28;20029;-73
2022/05/23 00:06:59;;;;;;;5.25;4.35;;;13.30;99.90;;;;;;2097193;28;20017;-73
2022/05/23 00:08:00;;;;;;;5.47;4.22;;;13.30;99.90;;;;;;2096575;28;20058;-73
2022/05/23 00:09:01;;;;;;;5.32;4.13;;;13.30;99.90;;;;;;2096733;28;20028;-73
2022/05/23 00:10:03;;;;;;;5.05;4.13;;;13.30;99.90;;;;;;2096835;28;20027;-73
2022/05/23 00:11:04;;;;;;;5.95;4.28;;;13.30;99.90;;;;;;2096668;28;20154;-72
2022/05/23 00:12:06;;;;;;;7.40;4.38;;;13.30;99.90;;;;;;2096420;28;20025;-73
2022/05/23 00:13:07;;;;;;;6.22;4.63;;;13.30;99.90;;;;;;2096591;28;20090;-73
2022/05/23 00:14:08;;;;;;;5.10;4.38;;;13.20;99.90;;;;;;2095905;28;20021;-72
2022/05/23 00:15:12;;;;;;;5.88;4.57;;;13.20;99.90;;;;;;2095923;28;20039;-73
2022/05/23 00:16:21;;;;;;;5.25;4.22;;;13.20;99.90;;;;;;2096652;28;20029;-72
2022/05/23 00:17:22;;;;;;;6.60;4.30;;;13.20;99.90;;;;;;2096376;28;20453;-72
2022/05/23 00:18:23;;;;;;;5.75;4.28;;;13.10;99.90;;;;;;2096211;28;20115;-72
2022/05/23 00:19:24;;;;;;;4.80;4.30;;;13.10;99.90;;;;;;2096612;28;20578;-74
2022/05/23 00:20:26;;;;;;;5.38;4.50;;;13.10;99.90;;;;;;2087175;28;20029;-73
2022/05/23 00:21:27;;;;;;;7.38;4.50;;;13.10;99.90;;;;;;2088019;28;20025;-72
2022/05/23 00:22:28;;;;;;;5.45;4.68;;;13.10;99.90;;;;;;2096100;28;20115;-73
2022/05/23 00:23:28;;;;;;;5.28;4.20;;;13.10;99.90;;;;;;2095807;28;20070;-72
2022/05/23 00:24:29;;;;;;;6.43;4.72;;;13.10;99.90;;;;;;2096425;28;20024;-72
2022/05/23 00:25:29;;;;;;;4.70;4.20;;;13.00;99.90;;;;;;2095785;28;20036;-71
2022/05/23 00:26:30;;;;;;;6.38;4.20;;;13.00;99.90;;;;;;2095810;28;20043;-72
2022/05/23 00:27:31;;;;;;;6.50;4.90;;;13.00;99.90;;;;;;2095849;28;20028;-72
2022/05/23 00:28:34;;;;;;;6.05;4.43;;;13.00;99.90;;;;;;2087713;28;20087;-74
2022/05/23 00:29:35;;;;;;;5.80;4.40;;;13.00;99.90;;;;;;2095592;28;20553;-72
2022/05/23 00:30:37;;;;;;;6.15;4.35;;;13.00;99.90;;;;;;2095873;28;20029;-72
2022/05/23 00:35:17;;;;;;;5.13;4.38;;;12.90;99.90;;;;;;2097169;28;20108;-71
2022/05/23 00:35:49;;;;;;;5.13;4.30;;;12.90;99.90;;;;;;2095788;28;20048;-73
2022/05/23 00:36:50;;;;;;;5.45;4.40;;;12.90;99.90;;;;;;2095866;28;20835;-73
2022/05/23 00:37:53;;;;;;;4.75;4.25;;;12.90;99.90;;;;;;2086861;28;20044;-72
2022/05/23 00:38:54;;;;;;;5.80;4.60;;;12.80;99.90;;;;;;2095657;28;20038;-72
2022/05/23 00:39:55;;;;;;;6.50;4.65;;;12.80;99.90;;;;;;2096066;28;20116;-73
2022/05/23 00:44:00;;;;;;;5.68;4.25;;;12.80;99.90;;;;;;2096430;28;20059;-72
2022/05/23 00:45:02;;;;;;;6.13;4.43;;;12.70;99.90;;;;;;2095816;28;20032;-73
2022/05/23 00:46:04;;;;;;;8.27;4.75;;;12.80;99.90;;;;;;2087493;28;20471;-72
2022/05/23 00:47:17;;;;;;;6.25;4.35;;;12.70;99.90;;;;;;2087449;28;20025;-73
2022/05/23 00:48:22;;;;;;;5.93;4.38;;;12.70;99.90;;;;;;2095681;28;20075;-72
2022/05/23 00:49:28;;;;;;;5.55;4.32;;;12.80;99.90;;;;;;2095633;28;20028;-72
2022/05/23 00:50:32;;;;;;;6.85;4.50;;;12.70;99.90;;;;;;2095560;28;20040;-73
2022/05/23 00:51:33;;;;;;;5.90;4.35;;;12.70;99.90;;;;;;2096137;28;20028;-72
2022/05/23 00:52:43;;;;;;;5.43;4.35;;;12.70;99.90;;;;;;2096242;28;20028;-71
2022/05/23 00:53:51;;;;;;;4.90;4.40;;;12.70;99.90;;;;;;2096149;28;20118;-72
2022/05/23 00:54:57;;;;;;;5.38;4.40;;;12.70;99.90;;;;;;2096359;28;20034;-73
2022/05/23 00:55:58;;;;;;;5.97;4.40;;;12.70;99.90;;;;;;2096790;28;20028;-73
2022/05/23 00:56:59;;;;;;;5.63;4.32;;;12.70;99.90;;;;;;2096304;28;20037;-74
2022/05/23 00:58:10;;;;;;;5.63;4.25;;;12.70;99.90;;;;;;2087407;28;20033;-72
2022/05/23 00:59:15;;;;;;;5.68;4.45;;;12.70;99.90;;;;;;2088885;28;20021;-73
2022/05/23 01:00:16;;;;;;;5.38;4.30;;;12.60;99.90;;;;;;2095433;28;20519;-72
2022/05/23 01:01:22;;;;;;;5.47;4.45;;;12.60;99.90;;;;;;2095935;28;20506;-72
2022/05/23 01:02:23;;;;;;;6.93;4.10;;;12.60;99.90;;;;;;2095506;28;20024;-73
2022/05/23 01:03:24;;;;;;;6.63;4.10;;;12.60;99.90;;;;;;2095505;28;20426;-72
2022/05/23 01:04:25;;;;;;;6.07;4.45;;;12.60;99.90;;;;;;2095656;28;20032;-72
2022/05/23 01:05:27;;;;;;;7.60;6.32;;;12.60;99.90;;;;;;2087179;28;20116;-72
2022/05/23 01:06:27;;;;;;;9.73;6.90;;;12.60;99.90;;;;;;2095501;28;20059;-72
2022/05/23 01:07:28;;;;;;;7.07;6.07;;;12.70;99.90;;;;;;2095557;28;20113;-73
2022/05/23 01:08:29;;;;;;;5.85;4.82;;;12.60;99.90;;;;;;2095925;28;20050;-71
2022/05/23 01:09:30;;;;;;;6.45;5.07;;;12.60;99.90;;;;;;2095527;28;20025;-72
2022/05/23 01:10:35;;;;;;;5.07;4.57;;;12.60;99.90;;;;;;2086980;28;20136;-71
2022/05/23 01:11:37;;;;;;;6.15;4.38;;;12.60;99.90;;;;;;2095821;28;20497;-72
2022/05/23 01:12:39;;;;;;;5.63;4.40;;;12.60;99.90;;;;;;2096018;28;20129;-72
2022/05/23 01:13:40;;;;;;;5.35;4.10;;;12.60;99.90;;;;;;2088368;28;20043;-72
2022/05/23 01:14:58;;;;;;;6.45;4.32;;;12.60;99.90;;;;;;2096063;28;20695;-71
2022/05/23 01:16:00;;;;;;;6.28;4.22;;;12.60;99.90;;;;;;2096162;28;20352;-72
2022/05/23 01:17:04;;;;;;;6.45;4.00;;;12.60;99.90;;;;;;2095680;28;20632;-71
2022/05/23 01:18:05;;;;;;;5.68;3.88;;;12.60;99.90;;;;;;2095364;28;20027;-71
2022/05/23 01:19:06;;;;;;;4.50;4.10;;;12.60;99.90;;;;;;2096305;28;20432;-72
2022/05/23 01:20:07;;;;;;;9.43;4.32;;;12.60;99.90;;;;;;2087096;28;20087;-73
2022/05/23 01:21:16;;;;;;;5.65;3.97;;;12.60;99.90;;;;;;2087553;28;20063;-73
2022/05/23 01:22:36;;;;;;;4.95;4.00;;;12.60;99.90;;;;;;2096307;28;20025;-73
2022/05/23 01:23:50;;;;;;;6.70;4.30;;;12.60;99.90;;;;;;2095442;28;20029;-73
2022/05/23 01:25:07;;;;;;;4.97;3.85;;;12.70;99.90;;;;;;2087237;28;20502;-72
2022/05/23 01:26:08;;;;;;;7.35;4.10;;;12.60;99.90;;;;;;2089650;28;20518;-73
2022/05/23 01:27:18;;;;;;;5.47;4.20;;;12.60;99.90;;;;;;2095956;28;20058;-72
2022/05/23 01:28:19;;;;;;;6.22;3.97;;;12.60;99.90;;;;;;2095505;28;20031;-73
2022/05/23 01:29:19;;;;;;;6.75;4.15;;;12.60;99.90;;;;;;2087258;28;20055;-73
2022/05/23 01:30:24;;;;;;;4.95;4.13;;;12.60;99.90;;;;;;2079723;28;20800;-72
2022/05/23 01:31:42;;;;;;;6.18;4.18;;;12.60;99.90;;;;;;2089423;28;20052;-72
2022/05/23 01:33:06;;;;;;;4.32;3.90;;;12.60;99.90;;;;;;2087618;28;20051;-73
2022/05/23 01:34:06;;;;;;;5.28;4.07;;;12.60;99.90;;;;;;2096220;28;20028;-73
2022/05/23 01:35:11;;;;;;;4.32;3.75;;;12.50;99.90;;;;;;2097078;28;20111;-73
2022/05/23 01:36:14;;;;;;;6.30;4.13;;;12.50;99.90;;;;;;2089032;28;20527;-72
2022/05/23 01:37:16;;;;;;;6.85;4.53;;;12.60;99.90;;;;;;2088886;28;20029;-72
2022/05/23 01:38:30;;;;;;;6.30;4.35;;;12.50;99.90;;;;;;2090193;28;20025;-71
2022/05/23 01:39:38;;;;;;;6.85;4.55;;;12.50;99.90;;;;;;2089742;28;20057;-71
2022/05/23 01:40:39;;;;;;;6.72;4.63;;;12.50;99.90;;;;;;2088675;28;20034;-71
2022/05/23 01:41:45;;;;;;;5.13;4.18;;;12.50;99.90;;;;;;2089473;28;20021;-71
2022/05/23 01:42:46;;;;;;;4.65;4.05;;;12.50;99.90;;;;;;2088631;28;20025;-72
2022/05/23 01:43:47;;;;;;;5.72;4.18;;;12.50;99.90;;;;;;2096955;28;20017;-71
2022/05/23 01:45:01;;;;;;;6.60;4.60;;;12.50;99.90;;;;;;2082264;28;20048;-73
2022/05/23 01:46:02;;;;;;;6.75;4.20;;;12.40;99.90;;;;;;2082238;28;20041;-72
2022/05/23 01:47:28;;;;;;;5.15;4.10;;;12.40;99.90;;;;;;2092226;28;20024;-72
2022/05/23 01:48:34;;;;;;;6.38;4.47;;;12.40;99.90;;;;;;2089841;28;20039;-72
2022/05/23 01:49:34;;;;;;;4.88;3.85;;;12.40;99.90;;;;;;2101463;28;20088;-71
2022/05/23 01:50:47;;;;;;;6.05;4.22;;;12.40;99.90;;;;;;2096346;28;20082;-72
2022/05/23 01:51:48;;;;;;;5.35;4.25;;;12.30;99.90;;;;;;2092705;28;20045;-72
2022/05/23 01:52:52;;;;;;;7.00;4.35;;;12.30;99.90;;;;;;2097146;28;20020;-71
2022/05/23 01:53:55;;;;;;;6.13;4.10;;;12.30;99.90;;;;;;2089354;28;20052;-72
2022/05/23 01:54:56;;;;;;;6.50;3.85;;;12.20;99.90;;;;;;2088632;28;20043;-72
2022/05/23 01:55:58;;;;;;;5.45;4.55;;;12.20;99.90;;;;;;2096871;28;20040;-72
2022/05/23 01:57:15;;;;;;;5.10;4.10;;;12.20;99.90;;;;;;2102956;28;20048;-72
2022/05/23 02:01:12;;;;;;;5.57;4.35;;;12.20;99.90;;;;;;2103938;28;20090;-71
2022/05/23 02:01:14;;;;;;;5.93;4.28;;;12.10;99.90;;;;;;2100378;28;20025;-72
2022/05/23 02:02:21;;;;;;;6.55;4.65;;;12.10;99.90;;;;;;2097792;28;20063;-72
2022/05/23 02:03:21;;;;;;;5.57;4.50;;;12.10;99.90;;;;;;2090973;28;20049;-72
2022/05/23 02:04:27;;;;;;;5.28;4.68;;;12.10;99.90;;;;;;2098775;28;20025;-72
2022/05/23 02:05:33;;;;;;;7.00;4.82;;;12.10;99.90;;;;;;2107086;28;20024;-72
2022/05/23 02:06:33;;;;;;;7.47;5.18;;;12.10;99.90;;;;;;2097825;28;20415;-71
2022/05/23 02:07:40;;;;;;;6.50;4.97;;;12.10;99.90;;;;;;2090887;28;20495;-71
2022/05/23 02:08:41;;;;;;;7.10;5.50;;;12.10;99.90;;;;;;2098125;28;20020;-72
2022/05/23 02:09:42;;;;;;;7.57;5.10;;;12.10;99.90;;;;;;2098150;28;20071;-71
2022/05/23 02:10:47;;;;;;;8.05;5.35;;;12.10;99.90;;;;;;2089892;28;20033;-73
2022/05/23 02:11:54;;;;;;;6.97;5.22;;;12.10;99.90;;;;;;2081643;28;20581;-71
2022/05/23 02:13:02;;;;;;;7.05;5.10;;;12.10;99.90;;;;;;2082854;28;20045;-72
2022/05/23 02:14:03;;;;;;;6.95;5.30;;;12.10;99.90;;;;;;2097539;28;20055;-71
2022/05/23 02:15:12;;;;;;;8.18;5.03;;;12.10;99.90;;;;;;2090526;28;20031;-71
2022/05/23 02:16:36;;;;;;;7.65;5.05;;;12.10;99.90;;;;;;2064154;28;20054;-72
2022/05/23 02:17:37;;;;;;;6.70;4.97;;;12.10;99.90;;;;;;2092019;28;20055;-72
2022/05/23 02:18:37;;;;;;;6.05;4.93;;;12.10;99.90;;;;;;2080337;28;20030;-72
2022/05/23 02:19:39;;;;;;;6.80;5.13;;;12.10;99.90;;;;;;2088736;28;20091;-72
2022/05/23 02:20:49;;;;;;;8.18;4.82;;;12.10;99.90;;;;;;2089481;28;20091;-71
2022/05/23 02:21:49;;;;;;;7.68;5.10;;;12.10;99.90;;;;;;2097029;28;20024;-71
2022/05/23 02:22:50;;;;;;;6.15;4.60;;;12.00;99.90;;;;;;2097489;28;20040;-71
2022/05/23 02:23:54;;;;;;;6.43;5.20;;;12.00;99.90;;;;;;2096623;28;20031;-71
2022/05/23 02:24:54;;;;;;;7.57;4.93;;;12.00;99.90;;;;;;2088279;28;20021;-71
2022/05/23 02:25:55;;;;;;;6.93;5.15;;;12.00;99.90;;;;;;2088387;28;20029;-72
2022/05/23 02:27:15;;;;;;;8.93;5.20;;;12.00;99.90;;;;;;2096982;28;20033;-71
2022/05/23 02:28:18;;;;;;;6.97;5.20;;;12.00;99.90;;;;;;2096363;28;20530;-70
2022/05/23 02:29:20;;;;;;;7.13;5.20;;;11.90;99.90;;;;;;2088742;28;20056;-72
2022/05/23 02:30:20;;;;;;;8.82;4.93;;;11.90;99.90;;;;;;2096523;28;20036;-71
2022/05/23 02:31:22;;;;;;;9.52;5.30;;;11.90;99.90;;;;;;2088543;28;20036;-71
2022/05/23 02:32:29;;;;;;;7.53;5.38;;;11.90;99.90;;;;;;2089021;28;20029;-71
2022/05/23 02:33:33;;;;;;;7.40;5.38;;;11.90;99.90;;;;;;2088899;28;20495;-71
2022/05/23 02:34:55;;;;;;;8.82;5.65;;;11.90;99.90;;;;;;2091290;28;20028;-71
2022/05/23 02:35:56;;;;;;;8.73;4.95;;;11.80;99.90;;;;;;2088254;28;20113;-72
2022/05/23 02:36:57;;;;;;;7.60;5.40;;;11.80;99.90;;;;;;2088354;28;20028;-71
2022/05/23 02:38:32;;;;;;;6.20;4.97;;;11.80;99.90;;;;;;2091591;28;20047;-72
2022/05/23 02:39:33;;;;;;;6.80;5.22;;;11.80;99.90;;;;;;2098386;28;20028;-71
2022/05/23 02:40:34;;;;;;;7.78;5.38;;;11.80;99.90;;;;;;2098089;28;20033;-71
2022/05/23 02:41:35;;;;;;;7.35;5.13;;;11.80;99.90;;;;;;2090051;28;20032;-71
2022/05/23 02:42:37;;;;;;;6.40;5.10;;;11.80;99.90;;;;;;2090250;28;20049;-71
2022/05/23 02:43:39;;;;;;;7.55;5.43;;;11.70;99.90;;;;;;2096526;28;20214;-71
2022/05/23 02:44:40;;;;;;;7.45;5.18;;;11.70;99.90;;;;;;2088426;28;20021;-72
2022/05/23 02:45:46;;;;;;;6.95;4.80;;;11.70;99.90;;;;;;2088233;28;20426;-72
2022/05/23 02:46:47;;;;;;;8.65;5.38;;;11.70;99.90;;;;;;2087946;28;20052;-71
2022/05/23 02:47:53;;;;;;;6.82;5.28;;;11.70;99.90;;;;;;2096498;28;20198;-71
2022/05/23 02:48:55;;;;;;;9.15;5.30;;;11.70;99.90;;;;;;2088339;28;20033;-71
2022/05/23 02:49:56;;;;;;;6.97;5.00;;;11.70;99.90;;;;;;2096343;28;20029;-72
2022/05/23 02:51:11;;;;;;;5.63;4.90;;;11.60;99.90;;;;;;2096747;28;20062;-72
2022/05/23 02:52:13;;;;;;;8.10;5.07;;;11.70;99.90;;;;;;2088561;28;20147;-71
2022/05/23 02:53:31;;;;;;;7.13;5.20;;;11.60;99.90;;;;;;2092599;28;20091;-72
2022/05/23 02:54:34;;;;;;;8.43;5.25;;;11.60;99.90;;;;;;2096096;28;20047;-72
2022/05/23 02:55:37;;;;;;;6.10;4.80;;;11.60;99.90;;;;;;2095802;28;20043;-72
2022/05/23 02:56:38;;;;;;;5.85;4.82;;;11.60;99.90;;;;;;2097777;28;20033;-72
2022/05/23 02:57:39;;;;;;;6.47;4.70;;;11.60;99.90;;;;;;2096576;28;20036;-72
2022/05/23 02:58:48;;;;;;;6.03;4.60;;;11.60;99.90;;;;;;2089268;28;20103;-72
2022/05/23 02:59:48;;;;;;;8.40;4.70;;;11.60;99.90;;;;;;2088031;28;20017;-72
2022/05/23 03:00:49;;;;;;;6.95;4.93;;;11.60;99.90;;;;;;2096286;28;20033;-73
2022/05/23 03:03:18;;;;;;;7.22;4.78;;;11.60;99.90;;;;;;2058361;28;20049;-72
2022/05/23 03:04:25;;;;;;;6.93;4.85;;;11.60;99.90;;;;;;2088989;28;20025;-72
2022/05/23 03:05:25;;;;;;;5.47;4.57;;;11.50;99.90;;;;;;2088132;28;20025;-72
2022/05/23 03:06:26;;;;;;;5.75;4.63;;;11.50;99.90;;;;;;2088302;28;20055;-72
2022/05/23 03:07:27;;;;;;;5.30;4.63;;;11.50;99.90;;;;;;2088134;28;20033;-72
2022/05/23 03:08:36;;;;;;;5.25;4.30;;;11.50;99.90;;;;;;2089200;28;20604;-72
2022/05/23 03:09:37;;;;;;;7.00;4.32;;;11.50;99.90;;;;;;2079536;28;20475;-72
2022/05/23 03:10:45;;;;;;;7.30;4.30;;;11.50;99.90;;;;;;2081611;28;20037;-72
2022/05/23 03:11:48;;;;;;;5.93;4.30;;;11.50;99.90;;;;;;2079913;28;20065;-73
2022/05/23 03:12:55;;;;;;;6.90;4.30;;;11.50;99.90;;;;;;2081839;28;20022;-72
2022/05/23 03:13:56;;;;;;;5.25;4.32;;;11.50;99.90;;;;;;2088216;28;20078;-72
2022/05/23 03:14:56;;;;;;;5.90;4.53;;;11.50;99.90;;;;;;2096730;28;20037;-71
2022/05/23 03:15:58;;;;;;;7.88;4.50;;;11.50;99.90;;;;;;2096417;28;20094;-71
2022/05/23 03:17:04;;;;;;;5.55;4.50;;;11.50;99.90;;;;;;2088619;28;20037;-71
2022/05/23 03:18:08;;;;;;;5.63;4.60;;;11.50;99.90;;;;;;2089131;28;20017;-71
2022/05/23 03:19:13;;;;;;;7.28;4.80;;;11.50;99.90;;;;;;2088401;28;20479;-72
2022/05/23 03:20:15;;;;;;;5.43;4.50;;;11.50;99.90;;;;;;2079631;28;20025;-71
2022/05/23 03:26:58;;;;;;;7.13;4.40;;;11.50;99.90;;;;;;2088330;28;20025;-71
2022/05/23 03:27:56;;;;;;;5.80;4.43;;;11.50;99.90;;;;;;2095713;28;20025;-71
2022/05/23 03:29:02;;;;;;;7.35;5.13;;;11.50;99.90;;;;;;2096242;28;20021;-71
2022/05/23 03:30:05;;;;;;;5.03;4.43;;;11.50;99.90;;;;;;2095983;28;20028;-71
2022/05/23 03:31:18;;;;;;;7.00;4.50;;;11.50;99.90;;;;;;2095750;28;20036;-71
2022/05/23 03:32:19;;;;;;;6.22;4.43;;;11.50;99.90;;;;;;2095983;28;20663;-72
2022/05/23 03:33:21;;;;;;;6.70;4.47;;;11.50;99.90;;;;;;2095963;28;20383;-71
2022/05/23 03:34:22;;;;;;;5.75;4.22;;;11.50;99.90;;;;;;2087820;28;20565;-72
2022/05/23 03:35:26;;;;;;;6.32;4.55;;;11.50;99.90;;;;;;2095899;28;20028;-72
2022/05/23 03:36:27;;;;;;;6.32;4.15;;;11.50;99.90;;;;;;2096098;28;20031;-71
2022/05/23 03:37:28;;;;;;;9.48;4.60;;;11.60;99.90;;;;;;2095889;28;20032;-72
2022/05/23 03:38:29;;;;;;;5.95;4.32;;;11.60;99.90;;;;;;2095943;28;20035;-72
2022/05/23 03:39:30;;;;;;;6.18;4.32;;;11.60;99.90;;;;;;2096171;28;20025;-71
2022/05/23 03:40:31;;;;;;;6.25;4.63;;;11.70;99.90;;;;;;2095919;28;20454;-71
2022/05/23 03:41:34;;;;;;;6.03;4.40;;;11.70;99.90;;;;;;2088163;28;20115;-71
2022/05/23 03:42:36;;;;;;;5.95;4.70;;;11.70;99.90;;;;;;2087969;28;20025;-71
2022/05/23 03:43:37;;;;;;;6.85;4.57;;;11.70;99.90;;;;;;2096268;28;20024;-71
2022/05/23 03:44:38;;;;;;;6.80;4.18;;;11.80;99.90;;;;;;2096853;28;20126;-71
2022/05/23 03:45:39;;;;;;;6.03;4.40;;;11.80;99.90;;;;;;2096561;28;20120;-70
2022/05/23 03:46:44;;;;;;;5.70;4.10;;;11.80;99.90;;;;;;2089076;28;20608;-71
2022/05/23 03:47:46;;;;;;;6.35;4.25;;;11.80;99.90;;;;;;2080167;28;20087;-71
2022/05/23 03:48:50;;;;;;;5.22;4.03;;;11.90;99.90;;;;;;2081075;28;20022;-71
2022/05/23 03:49:50;;;;;;;4.70;4.18;;;11.90;99.90;;;;;;2087901;28;20128;-71
2022/05/23 03:50:51;;;;;;;6.72;4.07;;;11.90;99.90;;;;;;2096017;28;20032;-70
2022/05/23 03:51:54;;;;;;;5.55;4.40;;;12.00;99.90;;;;;;2096051;28;20025;-72
2022/05/23 03:52:54;;;;;;;5.78;4.10;;;12.00;99.90;;;;;;2095727;28;20375;-71
2022/05/23 03:53:59;;;;;;;4.72;4.32;;;12.10;99.90;;;;;;2087996;28;20033;-70
2022/05/23 03:55:01;;;;;;;5.75;4.15;;;12.10;99.90;;;;;;2095989;28;20032;-71
2022/05/23 03:56:03;;;;;;;5.18;4.47;;;12.10;99.90;;;;;;2095789;28;20035;-70
2022/05/23 03:57:08;;;;;;;7.90;4.10;;;12.20;99.90;;;;;;2088011;28;20120;-70
2022/05/23 03:58:09;;;;;;;5.45;4.20;;;12.30;99.90;;;;;;2087315;28;20025;-71
2022/05/23 03:59:09;;;;;;;8.43;4.38;;;12.30;99.90;;;;;;2095953;28;20414;-71
2022/05/23 04:00:19;;;;;;;6.53;4.30;;;12.40;99.90;;;;;;2095700;28;20095;-71
2022/05/23 04:01:27;;;;;;;5.15;4.22;;;12.50;99.90;;;;;;2088529;28;20028;-71
2022/05/23 04:02:53;;;;;;;4.90;4.00;;;12.50;99.90;;;;;;2083038;28;20726;-71
2022/05/23 04:03:54;;;;;;;5.70;3.90;;;12.60;99.90;;;;;;2090941;28;20036;-71
2022/05/23 04:04:56;;;;;;;5.72;4.10;;;12.70;99.90;;;;;;2095759;28;20020;-70
2022/05/23 04:06:15;;;;;;;5.88;4.18;;;12.80;99.90;;;;;;2095987;28;20032;-70
2022/05/23 04:07:25;;;;;;;5.07;4.00;;;12.90;99.90;;;;;;2095793;28;20029;-70
2022/05/23 04:08:36;;;;;;;6.43;4.35;;;13.00;99.90;;;;;;2089021;28;20029;-71
2022/05/23 04:09:41;;;;;;;6.18;4.30;;;13.30;99.90;;;;;;2088171;28;20053;-70
2022/05/23 04:10:41;;;;;;;5.15;3.95;;;13.60;99.90;;;;;;2079396;28;20530;-71
2022/05/23 04:11:47;;;;;;;4.60;3.75;;;14.00;99.90;;;;;;2080438;28;20091;-71
2022/05/23 04:12:52;;;;;;;5.70;4.00;;;14.40;99.90;;;;;;2088306;28;20037;-71
2022/05/23 04:13:55;;;;;;;4.68;3.70;;;14.80;99.90;;;;;;2088206;28;20028;-71
2022/05/23 04:14:56;;;;;;;6.45;4.00;;;15.10;99.90;;;;;;2087953;28;20120;-72
2022/05/23 04:16:01;;;;;;;6.07;3.50;;;15.40;99.90;;;;;;2088715;28;20029;-71
2022/05/23 04:17:02;;;;;;;5.55;4.35;;;15.60;99.90;;;;;;2088567;28;20523;-71
2022/05/23 04:18:03;;;;;;;4.57;3.88;;;15.80;99.90;;;;;;2096614;28;20119;-71
2022/05/23 04:19:05;;;;;;;6.57;3.63;;;16.00;99.90;;;;;;2096553;28;20035;-72
2022/05/23 04:20:08;;;;;;;4.38;3.75;;;16.10;99.90;;;;;;2096559;28;20028;-72
2022/05/23 04:21:18;;;;;;;4.93;3.40;;;16.10;99.90;;;;;;2090368;28;20656;-72
2022/05/23 04:22:21;;;;;;;5.50;3.30;;;16.10;99.90;;;;;;2088840;28;20024;-72
2022/05/23 04:23:33;;;;;;;6.57;3.40;;;15.90;99.90;;;;;;2090223;28;20020;-71
2022/05/23 04:24:34;;;;;;;5.43;3.50;;;15.70;99.90;;;;;;2088402;28;20533;-74
2022/05/23 04:25:42;;;;;;;5.13;3.70;;;15.50;99.90;;;;;;2088556;28;20032;-71
2022/05/23 04:26:44;;;;;;;5.85;3.63;;;15.30;99.90;;;;;;2089602;28;20047;-71
2022/05/23 04:27:51;;;;;;;6.63;3.70;;;15.00;99.90;;;;;;2089174;28;20032;-72
2022/05/23 04:28:52;;;;;;;6.43;3.70;;;14.80;99.90;;;;;;2096770;28;20032;-73
2022/05/23 04:29:54;;;;;;;4.63;3.55;;;14.60;99.90;;;;;;2088496;28;20506;-71
2022/05/23 04:31:08;;;;;;;6.38;3.65;;;14.50;99.90;;;;;;2090438;28;20103;-71
2022/05/23 04:35:14;;;;;;;4.95;3.75;;;14.10;99.90;;;;;;2095839;28;20067;-70
2022/05/23 04:36:15;;;;;;;5.55;4.15;;;14.10;99.90;;;;;;2088384;28;20120;-70
2022/05/23 04:37:16;;;;;;;5.03;3.72;;;14.20;99.90;;;;;;2087346;28;20036;-71
2022/05/23 04:38:21;;;;;;;4.75;3.70;;;14.40;99.90;;;;;;2087684;28;20041;-70
2022/05/23 04:39:23;;;;;;;4.90;3.70;;;14.50;99.90;;;;;;2087364;28;20053;-71
2022/05/23 04:40:28;;;;;;;5.97;4.10;;;14.80;99.90;;;;;;2087098;28;20071;-72
2022/05/23 04:41:28;;;;;;;4.50;3.55;;;15.10;99.90;;;;;;2087667;28;20108;-70
2022/05/23 04:42:33;;;;;;;6.95;4.00;;;15.40;99.90;;;;;;2087728;28;20170;-72
2022/05/23 04:43:34;;;;;;;5.47;3.80;;;15.70;99.90;;;;;;2095472;28;20044;-71
2022/05/23 04:44:34;;;;;;;5.22;3.90;;;15.90;99.90;;;;;;2095544;28;20067;-71
2022/05/23 04:45:37;;;;;;;6.65;3.60;;;16.20;99.90;;;;;;2087460;28;20028;-71
2022/05/23 04:51:07;;;;;;;5.22;3.42;;;17.40;99.90;;;;;;2095974;28;20016;-70
2022/05/23 04:52:14;;;;;;;6.25;3.70;;;17.70;99.90;;;;;;2095529;28;20261;-72
2022/05/23 04:53:17;;;;;;;5.53;3.10;;;17.90;98.90;;;;;;2087533;28;20042;-71
2022/05/23 04:54:32;;;;;;;4.68;3.20;;;18.10;98.10;;;;;;2089487;28;20075;-71
2022/05/23 04:55:37;;;;;;;7.28;3.67;;;18.30;96.90;;;;;;2087598;28;20613;-72
2022/05/23 04:56:37;;;;;;;5.97;3.70;;;18.60;95.90;;;;;;2079372;28;20029;-73
2022/05/23 04:57:45;;;;;;;5.97;3.20;;;18.80;94.70;;;;;;2080605;28;20022;-71
2022/05/23 04:58:46;;;;;;;5.53;3.30;;;18.90;93.40;;;;;;2087244;28;20032;-71
2022/05/23 04:59:47;;;;;;;4.93;3.20;;;19.00;92.90;;;;;;2087093;28;20474;-71
2022/05/23 05:00:59;;;;;;;4.20;3.10;;;19.20;92.00;;;;;;2081510;28;20091;-72
2022/05/23 05:02:01;;;;;;;4.10;3.20;;;19.40;90.80;;;;;;2095704;28;20492;-72
2022/05/23 05:03:02;;;;;;;5.22;3.20;;;19.50;90.20;;;;;;2087795;28;20776;-72
2022/05/23 05:04:16;;;;;;;6.32;3.33;;;19.60;89.30;;;;;;2089057;28;20029;-71
2022/05/23 05:05:18;;;;;;;4.32;3.03;;;19.80;87.70;;;;;;2095570;28;20016;-71
2022/05/23 05:06:25;;;;;;;5.53;2.83;;;19.90;86.80;;;;;;2095578;28;20036;-72
2022/05/23 05:07:26;;;;;;;6.35;3.35;;;20.10;84.50;;;;;;2095732;28;20074;-72
2022/05/23 05:08:31;;;;;;;4.15;2.90;;;20.20;83.00;;;;;;2087267;28;20028;-72
2022/05/23 05:09:32;;;;;;;4.05;2.92;;;20.30;81.80;;;;;;2087749;28;20056;-72
2022/05/23 05:10:38;;;;;;;5.88;2.80;;;20.40;81.70;;;;;;2089361;28;20033;-72
2022/05/23 05:11:40;;;;;;;3.63;2.47;;;20.50;80.60;;;;;;2080600;28;20033;-71
2022/05/23 05:12:46;;;;;;;5.25;3.05;;;20.60;79.70;;;;;;2088779;28;20085;-72
2022/05/23 05:13:50;;;;;;;5.75;2.90;;;20.80;78.60;;;;;;2090053;28;20025;-72
2022/05/23 05:14:51;;;;;;;5.22;2.80;;;21.00;77.30;;;;;;2097073;28;20506;-72
2022/05/23 05:15:59;;;;;;;3.90;2.75;;;21.00;76.80;;;;;;2097108;28;20028;-72
2022/05/23 05:17:02;;;;;;;4.10;2.92;;;21.00;76.80;;;;;;2097267;28;20025;-72
2022/05/23 05:18:04;;;;;;;3.67;2.67;;;21.00;76.60;;;;;;2096690;28;20059;-72
2022/05/23 05:19:08;;;;;;;5.57;3.13;;;21.20;74.20;;;;;;2088760;28;20659;-72
2022/05/23 05:20:28;;;;;;;4.28;2.47;;;21.20;73.00;;;;;;2091585;28;20027;-72
2022/05/23 05:21:32;;;;;;;5.57;2.90;;;21.40;72.20;;;;;;2097583;28;20041;-71
2022/05/23 05:22:51;;;;;;;4.40;2.53;;;21.50;71.40;;;;;;2097767;28;20024;-71
2022/05/23 05:24:04;;;;;;;3.60;2.60;;;21.60;70.70;;;;;;2097056;28;20078;-71
2022/05/23 05:25:11;;;;;;;5.07;2.67;;;21.70;69.60;;;;;;2088706;28;20033;-71
2022/05/23 05:26:17;;;;;;;3.35;2.42;;;21.70;68.60;;;;;;2082786;28;20484;-71
2022/05/23 05:27:17;;;;;;;3.10;2.20;;;21.70;68.50;;;;;;2097025;28;20042;-71
2022/05/23 05:28:19;;;;;;;3.65;2.20;;;21.80;68.20;;;;;;2097369;28;20179;-71
2022/05/23 05:29:20;;;;;;;5.35;2.40;;;21.90;66.80;;;;;;2096980;28;20498;-71
2022/05/23 05:30:23;;;;;;;4.65;2.42;;;21.80;66.00;;;;;;2088723;28;20024;-71
2022/05/23 05:31:51;;;;;;;4.40;2.20;;;21.90;65.70;;;;;;2088665;28;20491;-71
2022/05/23 05:32:58;;;;;;;2.63;2.20;;;21.80;63.90;;;;;;2092381;28;20041;-71
2022/05/23 05:34:07;;;;;;;3.55;2.20;;;21.70;64.10;;;;;;2096854;28;20029;-71
2022/05/23 05:35:20;;;;;;;3.15;2.05;;;21.60;64.70;;;;;;2089888;28;20028;-69
2022/05/23 05:36:30;;;;;;;3.95;1.95;;;21.60;65.20;;;;;;2096923;28;20469;-70
2022/05/23 05:37:44;;;;;;;2.70;2.20;;;21.80;65.00;;;;;;2090207;28;20033;-70
2022/05/23 05:39:06;;;;;;;5.07;2.28;;;22.00;63.90;;;;;;2088902;28;20660;-71
2022/05/23 05:40:13;;;;;;;3.70;2.22;;;22.30;63.20;;;;;;2091848;28;20031;-71
2022/05/23 05:41:20;;;;;;;4.18;2.10;;;22.30;61.90;;;;;;2096844;28;20575;-71
2022/05/23 05:42:28;;;;;;;2.67;1.83;;;22.40;61.70;;;;;;2081336;28;20533;-71
2022/05/23 05:43:35;;;;;;;5.20;2.10;;;22.50;62.00;;;;;;2082638;28;20554;-70
2022/05/23 05:44:45;;;;;;;3.30;1.98;;;22.50;60.50;;;;;;2090179;28;20032;-71
2022/05/23 05:45:53;;;;;;;2.47;1.95;;;22.50;60.10;;;;;;2089066;28;20473;-71
2022/05/23 05:47:22;;;;;;;3.80;2.00;;;22.40;60.10;;;;;;2082708;28;20029;-70
2022/05/23 05:48:24;;;;;;;4.32;2.00;;;22.20;59.60;;;;;;2096694;28;20747;-70
2022/05/23 05:49:28;;;;;;;3.45;2.08;;;22.10;60.20;;;;;;2097038;28;20118;-71
2022/05/23 05:50:38;;;;;;;2.33;1.80;;;21.80;61.00;;;;;;2097394;28;20043;-71
2022/05/23 05:51:51;;;;;;;4.30;2.10;;;21.50;61.10;;;;;;2096764;28;20620;-72
2022/05/23 05:53:06;;;;;;;2.22;1.80;;;21.30;62.10;;;;;;2090444;28;20029;-71
2022/05/23 05:54:11;;;;;;;4.80;1.95;;;20.90;62.50;;;;;;2097194;28;20526;-71
2022/05/23 05:55:18;;;;;;;2.00;1.70;;;20.60;62.90;;;;;;2089994;28;20538;-70
2022/05/23 05:56:24;;;;;;;3.22;1.80;;;20.60;63.50;;;;;;2096827;28;20045;-70
2022/05/23 05:57:26;;;;;;;2.90;1.70;;;20.60;63.70;;;;;;2096831;28;20028;-70
2022/05/23 05:58:31;;;;;;;3.13;1.80;;;20.70;62.40;;;;;;2088883;28;20040;-70
2022/05/23 05:59:35;;;;;;;4.38;1.70;;;20.80;61.40;;;;;;2080922;28;20492;-70
2022/05/23 06:00:36;;;;;;;2.63;1.60;;;21.00;61.20;;;;;;2080675;28;20049;-70